Admire, KS (66830)

11:34 PM CDT on August 01, 2014 (GMT -0500)
Timmerman School Area (KKSEMPOR4) Elev 1214 ft | 38.43 °N, 96.22 °W | Change Station

Current weather conditions updated 11 minutes ago

Clear
Clear
74.5 °F
Feels Like 76 °F
N
7.4
Wind Variable Wind from SSE
Gusts 9.8 mph

Tomorrow is forecast to be nearly the same temperature as today.

Today
High -- | Low -- °F
--% Chance of Precip.
Yesterday
High -- | Low -- °F
Precip. -- in
6:25 AM 8:34 PM
Waxing Crescent, 32% visible
Pressure 30.03 in
Visibility 10.0 miles
Clouds Clear
Heat Index 76 °F
Dew Point 66 °F
Humidity 75%
Rainfall 0.00 in
Snow Depth Not available.
UV 0 out of 12
Pollen 6.80 out of 12
Air Quality Not available.
Flu Activity Not available.
METAR KEMP 020353Z AUTO 16007KT 10SM CLR 22/18 A3006 RMK AO2 SLP169 T02220178

More Conditions Fewer Conditions

Pressure 30.03 in
Visibility 10.0 miles
Clouds Clear
Heat Index 76 °F
Dew Point 66 °F
Humidity 75%
Rainfall 0.00 in
Snow Depth Not available.
UV 0 out of 12
Pollen 6.80 out of 12
Air Quality Not available.
Flu Activity Not available.
METAR KEMP 020353Z AUTO 16007KT 10SM CLR 22/18 A3006 RMK AO2 SLP169 T02220178

More Conditions Fewer Conditions

10-Day Weather Forecast

Almanac

Astronomy

Aug. 01, 2014 Rise Set
Actual Time 6:25 AM CDT 8:34 PM CDT
Civil Twilight 5:56 AM CDT 9:04 PM CDT
Nautical Twilight 5:20 AM CDT 9:40 PM CDT
Astronomical Twilight 4:40 AM CDT 10:19 PM CDT
Moon 11:46 AM CDT (8/1) 11:24 PM CDT (8/1)
Length of Visible Light 15h 07m
Length of Day
14h 08m
Tomorrow will be 1m 53s shorter.
Waxing Crescent, 32% of the Moon is Illuminated
Aug 2
Waxing Crescent
Aug 3
First Quarter
Aug 10
Full
Aug 17
Last Quarter
Aug 25
New

Yesterday's Extremes

State Highs State Lows

Community

WunderPhotos

Upload Photos

1,739,820 photos uploaded!

Nearby

Snow Depth

Station Depth Elevation
No new snow has been reported.

Earthquake Activity

City Distance Mag. Time & Date
Medford, Oklahoma 167 miles 4.3 9:46 PM CDT
2014-07-28
Medford, Oklahoma 158 miles 2.9 3:39 PM CDT
2014-07-27
Caldwell, Kansas 140 miles 3.4 5:57 AM CDT
2014-07-26
Minimum magnitude displayed is 2.5.

Coastal Water Temperatures

Place Temperature
No Stations Reporting

Nearby Weather Stations

Station Location Temp. Heat Index Dew Point Humidity Wind Precip. Elev Updated Type
Timmerman School Area, Emporia, KS 74.5 °F 76 °F 66 °F 75% SSE  at  7.4 mph 0.00 in / hr 1214 ft 11:23 PM CDT Rapid Fire
Skydive Kansas, Osage City, KS 75.4 °F 78 °F 61 °F 61% East  at  1.6 mph 0.00 in / hr 1089 ft 12:34 AM EDT Rapid Fire
East Emporia Kansas, Emporia, KS 73.2 °F 75 °F 62 °F 69% SSW  at  4.7 mph - / hr 1106 ft 11:27 PM CDT Normal
Fly over Country, Burlingame, KS 71.2 °F 72 °F 64 °F 79% ESE  at  5.1 mph 0.00 in / hr 1063 ft 11:34 PM CDT Rapid Fire
T-K Weather Station West Hartford, Kansa, Hartford, KS 72.7 °F 74 °F 65 °F 76% SSE  at  2.7 mph - / hr 1129 ft 11:31 PM CDT Normal

Show More Stations Show Fewer Stations